Time;durP1;ratioP1;P1;durP2;ratioP2;P2;SDS_P1;SDS_P2;PMS_P1;PMS_P2;Temp;Humidity;BMP_temperature;BMP_pressure;BME280_temperature;BME280_humidity;BME280_pressure;Samples;Min_cycle;Max_cycle;Signal;HPM_P1;HPM_P2
2021/07/06 00:00:22;;;;;;;4.10;3.80;;;19.10;99.90;;;;;;4931860;29;21079;-74
2021/07/06 00:02:52;;;;;;;4.40;3.50;;;19.10;99.90;;;;;;4918602;29;20511;-74
2021/07/06 00:05:21;;;;;;;4.33;3.93;;;19.10;99.90;;;;;;4918328;29;20440;-74
2021/07/06 00:07:50;;;;;;;3.60;3.30;;;19.10;99.90;;;;;;4918549;29;20448;-75
2021/07/06 00:10:21;;;;;;;4.53;4.13;;;19.10;99.90;;;;;;4920329;29;20470;-74
2021/07/06 00:12:49;;;;;;;6.30;4.07;;;19.10;99.90;;;;;;4935708;29;20505;-73
2021/07/06 00:15:23;;;;;;;4.10;3.70;;;19.10;99.90;;;;;;4936855;29;20541;-74
2021/07/06 00:17:54;;;;;;;4.20;3.80;;;19.00;99.90;;;;;;4920934;29;20814;-75
2021/07/06 00:20:25;;;;;;;5.00;4.60;;;19.00;99.90;;;;;;4933811;29;20486;-75
2021/07/06 00:22:54;;;;;;;4.67;4.20;;;19.00;99.90;;;;;;4920193;29;20489;-74
2021/07/06 00:25:22;;;;;;;5.80;5.37;;;19.00;99.90;;;;;;4903090;29;20459;-75
2021/07/06 00:27:50;;;;;;;5.30;4.00;;;19.00;99.90;;;;;;4926769;29;20480;-74
2021/07/06 00:30:19;;;;;;;5.90;4.80;;;19.00;99.90;;;;;;4917902;29;20469;-75
2021/07/06 00:32:48;;;;;;;4.80;4.17;;;19.00;99.90;;;;;;4931999;29;20489;-75
2021/07/06 00:35:18;;;;;;;5.17;4.77;;;19.00;99.90;;;;;;4936479;29;20973;-74
2021/07/06 00:37:46;;;;;;;4.23;3.93;;;18.90;99.90;;;;;;4936838;29;20876;-74
2021/07/06 00:40:16;;;;;;;4.60;4.30;;;18.90;99.90;;;;;;4936307;29;21082;-75
2021/07/06 00:42:46;;;;;;;4.70;4.30;;;18.90;99.90;;;;;;4930136;29;20864;-75
2021/07/06 00:45:16;;;;;;;4.30;4.00;;;18.90;99.90;;;;;;4934836;29;20284;-75
2021/07/06 00:47:46;;;;;;;5.20;4.70;;;19.00;99.90;;;;;;4920535;29;20542;-75
2021/07/06 00:50:19;;;;;;;4.70;4.30;;;18.90;99.90;;;;;;4921145;29;20570;-74
2021/07/06 00:52:47;;;;;;;4.40;4.10;;;18.90;99.90;;;;;;4917753;29;20438;-74
2021/07/06 00:55:16;;;;;;;4.40;4.00;;;18.90;99.90;;;;;;4918560;29;20440;-73
2021/07/06 00:57:44;;;;;;;4.93;4.47;;;18.90;99.90;;;;;;4937378;29;20970;-74
2021/07/06 01:00:16;;;;;;;4.20;3.87;;;18.90;99.90;;;;;;4935891;29;20605;-74
2021/07/06 01:02:45;;;;;;;4.40;3.97;;;18.90;99.90;;;;;;4937175;29;20510;-73
2021/07/06 01:05:15;;;;;;;5.23;4.70;;;18.90;99.90;;;;;;4934668;29;20451;-74
2021/07/06 01:07:45;;;;;;;4.80;4.40;;;18.90;99.90;;;;;;4936862;29;20428;-74
2021/07/06 01:10:17;;;;;;;4.27;3.87;;;18.90;99.90;;;;;;4936190;29;20469;-75
2021/07/06 01:12:46;;;;;;;4.87;4.40;;;18.90;99.90;;;;;;4931594;29;20460;-75
2021/07/06 01:15:19;;;;;;;5.07;4.20;;;18.90;99.90;;;;;;4917094;29;20474;-75
2021/07/06 01:17:59;;;;;;;4.17;3.87;;;18.90;99.90;;;;;;4928789;29;20469;-75
2021/07/06 01:20:28;;;;;;;3.47;3.27;;;18.90;99.90;;;;;;4936033;29;20497;-74
2021/07/06 01:22:59;;;;;;;3.83;3.53;;;18.90;99.90;;;;;;4935888;29;20439;-75
2021/07/06 01:25:28;;;;;;;4.27;3.73;;;18.90;99.90;;;;;;4936204;29;20501;-74
2021/07/06 01:28:00;;;;;;;4.50;4.10;;;18.90;99.90;;;;;;4934622;29;20454;-74
2021/07/06 01:30:28;;;;;;;6.40;4.47;;;18.90;99.90;;;;;;4935619;29;20917;-74
2021/07/06 01:32:57;;;;;;;4.17;3.83;;;18.90;99.90;;;;;;4934729;29;20464;-75
2021/07/06 01:35:26;;;;;;;4.07;3.70;;;18.90;99.90;;;;;;4929379;29;20441;-75
2021/07/06 01:37:56;;;;;;;3.53;3.23;;;18.90;99.90;;;;;;4917060;29;20447;-75
2021/07/06 01:40:26;;;;;;;4.60;4.20;;;18.90;99.90;;;;;;4930301;29;20548;-75
2021/07/06 01:42:56;;;;;;;4.30;4.00;;;18.90;99.90;;;;;;4934892;29;20194;-75
2021/07/06 01:45:26;;;;;;;5.27;4.40;;;18.90;99.90;;;;;;4935659;29;20540;-74
2021/07/06 01:47:57;;;;;;;4.00;3.53;;;18.90;99.90;;;;;;4936374;29;20517;-75
2021/07/06 01:50:27;;;;;;;4.00;3.70;;;18.90;99.90;;;;;;4935862;29;20509;-75
2021/07/06 01:52:57;;;;;;;4.33;4.03;;;18.90;99.90;;;;;;4935951;29;20510;-75
2021/07/06 01:55:28;;;;;;;4.10;3.80;;;18.90;99.90;;;;;;4935980;29;21043;-74
2021/07/06 01:57:58;;;;;;;4.00;3.60;;;18.90;99.90;;;;;;4934464;29;20451;-75
2021/07/06 02:00:31;;;;;;;4.20;3.90;;;18.90;99.90;;;;;;4935097;29;20501;-75
2021/07/06 02:03:00;;;;;;;6.00;4.20;;;18.90;99.90;;;;;;4934310;29;20894;-75
2021/07/06 02:05:31;;;;;;;5.10;4.33;;;18.90;99.90;;;;;;4916796;29;20463;-74
2021/07/06 02:07:59;;;;;;;3.93;3.63;;;18.90;99.90;;;;;;4919733;29;20423;-73
2021/07/06 02:10:30;;;;;;;5.10;4.07;;;18.90;99.90;;;;;;4920096;29;20862;-75
2021/07/06 02:13:01;;;;;;;4.77;4.27;;;18.80;99.90;;;;;;4920499;29;20445;-74
2021/07/06 02:15:30;;;;;;;4.43;4.03;;;18.80;99.90;;;;;;4920413;29;20453;-75
2021/07/06 02:17:58;;;;;;;4.73;4.33;;;18.80;99.90;;;;;;4920011;29;20449;-75
2021/07/06 02:20:27;;;;;;;4.40;3.93;;;18.80;99.90;;;;;;4935329;29;20486;-74
2021/07/06 02:22:55;;;;;;;4.70;4.30;;;18.80;99.90;;;;;;4926497;29;20505;-75
2021/07/06 02:25:23;;;;;;;4.70;4.17;;;18.80;99.90;;;;;;4920383;29;20485;-74
2021/07/06 02:27:53;;;;;;;4.70;4.40;;;18.80;99.90;;;;;;4919943;29;20420;-75
2021/07/06 02:30:23;;;;;;;6.13;4.47;;;18.80;99.90;;;;;;4919781;29;20879;-74
2021/07/06 02:32:53;;;;;;;5.60;5.00;;;18.80;99.90;;;;;;4919866;29;20423;-75
2021/07/06 02:35:23;;;;;;;4.37;4.03;;;18.80;99.90;;;;;;4918406;29;20470;-75
2021/07/06 02:37:51;;;;;;;4.70;4.30;;;18.80;99.90;;;;;;4923073;29;20510;-75
2021/07/06 02:40:20;;;;;;;5.30;4.45;;;18.80;99.90;;;;;;4936549;29;20453;-75
2021/07/06 02:42:48;;;;;;;4.73;4.33;;;18.80;99.90;;;;;;4938585;29;20203;-74
2021/07/06 02:45:19;;;;;;;4.60;4.20;;;18.80;99.90;;;;;;4938189;29;20456;-74
2021/07/06 02:47:48;;;;;;;4.97;4.47;;;18.80;99.90;;;;;;4938960;29;20442;-74
2021/07/06 02:50:19;;;;;;;4.20;3.90;;;18.80;99.90;;;;;;4937354;29;20734;-74
2021/07/06 02:52:48;;;;;;;4.20;3.90;;;18.80;99.90;;;;;;4938946;29;20455;-74
2021/07/06 02:55:18;;;;;;;4.30;4.00;;;18.80;99.90;;;;;;4922779;29;20442;-74
2021/07/06 02:57:46;;;;;;;4.20;3.90;;;18.70;99.90;;;;;;4918367;29;20483;-74
2021/07/06 03:00:21;;;;;;;4.20;3.90;;;18.70;99.90;;;;;;4919589;29;20546;-75
2021/07/06 03:02:51;;;;;;;5.97;4.70;;;18.70;99.90;;;;;;4929100;29;20423;-75
2021/07/06 03:05:21;;;;;;;4.13;3.83;;;18.70;99.90;;;;;;4937638;29;20467;-75
2021/07/06 03:07:50;;;;;;;4.23;3.93;;;18.70;99.90;;;;;;4924233;29;20438;-74
2021/07/06 03:10:20;;;;;;;5.40;4.87;;;18.70;99.90;;;;;;4919683;29;20452;-75
2021/07/06 03:12:48;;;;;;;4.60;4.20;;;18.70;99.90;;;;;;4918079;29;20555;-74
2021/07/06 03:15:21;;;;;;;5.10;4.43;;;18.70;99.90;;;;;;4917852;29;20453;-75
2021/07/06 03:17:49;;;;;;;5.10;4.67;;;18.70;99.90;;;;;;4918424;29;20433;-74
2021/07/06 03:20:20;;;;;;;4.80;4.40;;;18.70;99.90;;;;;;4918854;29;20505;-75
2021/07/06 03:22:48;;;;;;;4.40;4.00;;;18.70;99.90;;;;;;4917699;29;20446;-74
2021/07/06 03:25:18;;;;;;;5.13;4.57;;;18.70;99.90;;;;;;4919942;29;20514;-75
2021/07/06 03:27:47;;;;;;;4.07;3.73;;;18.70;99.90;;;;;;4918846;29;20471;-74
2021/07/06 03:30:19;;;;;;;4.57;4.20;;;18.70;99.90;;;;;;4932993;29;20510;-75
2021/07/06 03:32:48;;;;;;;4.80;4.40;;;18.70;99.90;;;;;;4937766;29;20511;-75
2021/07/06 03:35:17;;;;;;;4.27;3.97;;;18.70;99.90;;;;;;4937951;29;20450;-74
2021/07/06 03:37:46;;;;;;;4.67;4.27;;;18.70;99.90;;;;;;4937674;29;20447;-75
2021/07/06 03:40:17;;;;;;;4.13;3.83;;;18.70;99.90;;;;;;4937778;29;20461;-75
2021/07/06 03:49:06;;;;;;;7.17;4.13;;;18.70;99.90;;;;;;4991384;28;21054;-75
2021/07/06 03:51:35;;;;;;;4.50;4.10;;;18.70;99.90;;;;;;4993745;28;20529;-75
2021/07/06 03:54:03;;;;;;;4.30;4.00;;;18.70;99.90;;;;;;4995159;28;20454;-75
2021/07/06 03:56:31;;;;;;;4.30;4.00;;;18.70;99.90;;;;;;4995345;28;20939;-75
2021/07/06 03:59:00;;;;;;;5.03;4.50;;;18.70;99.90;;;;;;4996654;28;20450;-75
2021/07/06 04:01:28;;;;;;;4.50;4.20;;;18.70;99.90;;;;;;4993494;28;20479;-75
2021/07/06 04:03:57;;;;;;;5.90;4.37;;;18.70;99.90;;;;;;4998374;28;21010;-74
2021/07/06 04:06:26;;;;;;;3.90;3.60;;;18.70;99.90;;;;;;4993838;28;20968;-75
2021/07/06 04:08:54;;;;;;;4.60;4.23;;;18.80;99.90;;;;;;4993439;28;20491;-75
2021/07/06 04:11:22;;;;;;;4.03;3.63;;;18.80;99.90;;;;;;4996856;28;20522;-75
2021/07/06 04:13:51;;;;;;;4.07;3.77;;;18.80;99.90;;;;;;4993273;28;20486;-75
2021/07/06 04:16:19;;;;;;;4.70;4.30;;;18.80;99.90;;;;;;4995957;28;20483;-75
2021/07/06 04:18:47;;;;;;;3.70;3.10;;;18.80;99.90;;;;;;4994458;28;20810;-74
2021/07/06 04:21:15;;;;;;;3.97;3.37;;;18.80;99.90;;;;;;4994444;28;20535;-75
2021/07/06 04:23:45;;;;;;;4.67;4.27;;;18.90;99.90;;;;;;4995395;28;21025;-75
2021/07/06 04:26:13;;;;;;;3.70;3.40;;;18.90;99.90;;;;;;4993273;28;20569;-75
2021/07/06 04:28:43;;;;;;;3.50;3.30;;;18.90;99.90;;;;;;4994208;28;20547;-75
2021/07/06 04:31:14;;;;;;;3.90;3.60;;;18.90;99.90;;;;;;4994718;28;20472;-75
2021/07/06 04:33:43;;;;;;;3.67;3.37;;;18.90;99.90;;;;;;4994355;28;20857;-75
2021/07/06 04:36:11;;;;;;;4.07;3.77;;;19.00;99.90;;;;;;4995031;28;20810;-75
2021/07/06 04:38:39;;;;;;;3.60;3.30;;;19.00;99.90;;;;;;4992991;28;20918;-75
2021/07/06 04:41:11;;;;;;;4.00;3.70;;;19.00;99.90;;;;;;4994393;28;20476;-75
2021/07/06 04:43:39;;;;;;;3.60;3.30;;;19.00;99.90;;;;;;4993366;28;20452;-75
2021/07/06 04:46:07;;;;;;;4.10;3.80;;;19.10;99.90;;;;;;4992842;28;20467;-74
2021/07/06 04:48:35;;;;;;;3.47;3.17;;;19.10;99.90;;;;;;4995431;28;20503;-75
2021/07/06 04:51:06;;;;;;;3.60;3.30;;;19.10;99.90;;;;;;4991807;28;20506;-74
2021/07/06 04:53:39;;;;;;;3.30;3.00;;;19.10;99.90;;;;;;4993628;28;20462;-75
2021/07/06 04:56:22;;;;;;;4.43;4.13;;;19.10;99.90;;;;;;4998948;28;20444;-75
2021/07/06 04:58:50;;;;;;;4.33;3.47;;;19.10;99.90;;;;;;4995500;28;20490;-74
2021/07/06 05:01:19;;;;;;;3.63;3.33;;;19.10;99.90;;;;;;4995631;28;20482;-74
2021/07/06 05:03:49;;;;;;;3.33;3.10;;;19.20;99.90;;;;;;4993615;28;20476;-75
2021/07/06 05:06:20;;;;;;;3.43;3.13;;;19.20;99.90;;;;;;4992771;28;20451;-74
2021/07/06 05:08:49;;;;;;;4.30;3.10;;;19.20;99.90;;;;;;4994618;28;20440;-75
2021/07/06 05:11:18;;;;;;;3.37;3.03;;;19.20;99.90;;;;;;4994059;28;20466;-75
2021/07/06 05:13:47;;;;;;;3.90;3.17;;;19.20;99.90;;;;;;4995280;28;20430;-74
2021/07/06 05:16:16;;;;;;;3.07;2.77;;;19.30;99.90;;;;;;4992841;28;20458;-74
2021/07/06 05:18:44;;;;;;;2.93;2.63;;;19.30;99.90;;;;;;4993797;28;20435;-74
2021/07/06 05:21:12;;;;;;;3.40;2.90;;;19.30;99.90;;;;;;4994993;28;20459;-74
2021/07/06 05:23:59;;;;;;;2.93;2.73;;;19.40;99.90;;;;;;4996471;28;20528;-74
2021/07/06 05:26:29;;;;;;;4.40;3.07;;;19.50;99.90;;;;;;4998061;28;20667;-74
2021/07/06 05:28:57;;;;;;;2.67;2.47;;;19.50;99.90;;;;;;4998646;28;20436;-74
2021/07/06 05:31:25;;;;;;;3.40;3.10;;;19.60;99.90;;;;;;4997638;28;20487;-74
2021/07/06 05:33:54;;;;;;;3.00;2.80;;;19.60;99.90;;;;;;5001157;28;20452;-74
2021/07/06 05:36:23;;;;;;;3.30;3.00;;;19.60;99.90;;;;;;4996201;28;20470;-75
2021/07/06 05:38:53;;;;;;;3.00;2.80;;;19.70;99.90;;;;;;4994348;28;21035;-75
2021/07/06 05:41:22;;;;;;;3.70;2.50;;;19.70;99.90;;;;;;4994778;28;20468;-75
2021/07/06 05:43:52;;;;;;;3.20;2.80;;;19.70;99.90;;;;;;4995638;28;20445;-75
2021/07/06 05:46:20;;;;;;;2.50;2.30;;;19.90;99.90;;;;;;4999258;28;20287;-75
2021/07/06 05:48:48;;;;;;;2.80;2.60;;;20.00;99.90;;;;;;4997721;28;20543;-75
2021/07/06 05:51:17;;;;;;;2.70;2.50;;;20.30;99.90;;;;;;4996090;28;20478;-75
2021/07/06 05:53:48;;;;;;;4.87;2.67;;;20.40;99.90;;;;;;4999276;28;20807;-75
2021/07/06 05:56:17;;;;;;;2.60;2.40;;;20.60;99.90;;;;;;5002789;28;20760;-75
2021/07/06 05:58:45;;;;;;;2.57;2.37;;;20.60;99.90;;;;;;5002417;28;20527;-75
2021/07/06 06:01:16;;;;;;;2.20;2.10;;;20.80;99.90;;;;;;5002534;28;20539;-75
2021/07/06 06:03:45;;;;;;;4.37;2.30;;;20.90;99.90;;;;;;4996023;28;20544;-74
2021/07/06 06:06:13;;;;;;;2.90;2.70;;;21.10;99.90;;;;;;5005960;28;20468;-75
2021/07/06 06:08:42;;;;;;;2.50;2.10;;;21.20;99.90;;;;;;5000032;28;20543;-75
2021/07/06 06:11:10;;;;;;;2.77;1.80;;;21.30;99.90;;;;;;4999877;28;20457;-74
2021/07/06 06:13:39;;;;;;;3.23;2.10;;;21.30;99.90;;;;;;4995868;28;20460;-74
2021/07/06 06:16:08;;;;;;;6.37;2.00;;;21.30;99.90;;;;;;4995678;28;20449;-75
2021/07/06 06:18:37;;;;;;;4.27;2.10;;;21.30;99.90;;;;;;4999703;28;20452;-75
2021/07/06 06:21:05;;;;;;;2.37;2.17;;;21.30;99.90;;;;;;4998188;28;20579;-75
2021/07/06 06:23:36;;;;;;;2.27;2.07;;;21.40;99.90;;;;;;4998611;28;20540;-74
2021/07/06 06:26:04;;;;;;;2.53;2.20;;;21.40;99.90;;;;;;4995818;28;20452;-75
2021/07/06 06:28:32;;;;;;;2.63;2.00;;;21.50;99.90;;;;;;5001621;28;20453;-75
2021/07/06 06:31:01;;;;;;;2.20;2.10;;;21.70;99.90;;;;;;5000687;28;20501;-75
2021/07/06 06:33:33;;;;;;;2.10;1.90;;;21.80;99.90;;;;;;5002257;28;20456;-75
2021/07/06 06:36:05;;;;;;;3.30;2.03;;;21.90;99.90;;;;;;4996888;28;20528;-75
2021/07/06 06:38:34;;;;;;;2.87;1.70;;;21.90;99.90;;;;;;4998257;28;20445;-75
2021/07/06 06:41:02;;;;;;;3.97;2.88;;;22.00;99.90;;;;;;4996048;28;20445;-75
2021/07/06 06:43:30;;;;;;;2.50;2.23;;;22.20;99.90;;;;;;4999158;28;20306;-75
2021/07/06 06:46:00;;;;;;;3.70;2.70;;;22.30;99.90;;;;;;4998953;28;20447;-74
2021/07/06 06:48:28;;;;;;;4.77;3.30;;;22.50;99.90;;;;;;4995841;28;20891;-74
2021/07/06 06:50:58;;;;;;;1.73;1.60;;;22.60;99.90;;;;;;5000142;28;20555;-75
2021/07/06 06:53:28;;;;;;;5.70;3.70;;;22.60;99.90;;;;;;4997763;28;20437;-75
2021/07/06 06:55:56;;;;;;;3.87;2.70;;;22.70;99.90;;;;;;4996541;28;20441;-75
2021/07/06 06:58:24;;;;;;;1.90;1.70;;;22.70;99.90;;;;;;4995033;28;20455;-75
2021/07/06 07:00:52;;;;;;;2.50;2.23;;;22.70;99.90;;;;;;4996135;28;20557;-75
2021/07/06 07:03:20;;;;;;;2.03;1.87;;;22.70;99.90;;;;;;4994910;28;20473;-74
2021/07/06 07:05:48;;;;;;;2.00;1.33;;;22.60;99.90;;;;;;4994888;28;20449;-75
2021/07/06 07:08:17;;;;;;;2.07;1.70;;;22.60;99.90;;;;;;4995816;28;20456;-75
2021/07/06 07:10:48;;;;;;;2.20;1.60;;;22.60;99.90;;;;;;5001851;28;20519;-75
2021/07/06 07:13:16;;;;;;;2.13;1.60;;;22.60;99.90;;;;;;4994780;28;21057;-76
2021/07/06 07:15:44;;;;;;;5.90;3.97;;;22.60;99.90;;;;;;4998564;28;20472;-75
2021/07/06 07:18:13;;;;;;;3.73;3.30;;;22.60;99.90;;;;;;4996618;28;20449;-75
2021/07/06 07:20:45;;;;;;;2.47;1.60;;;22.60;99.90;;;;;;4995577;28;20469;-75
2021/07/06 07:23:16;;;;;;;2.00;1.80;;;22.50;99.90;;;;;;4996009;28;20456;-75
2021/07/06 07:25:45;;;;;;;2.00;1.60;;;22.50;99.90;;;;;;4995835;28;20528;-75
2021/07/06 07:28:14;;;;;;;6.30;4.73;;;22.40;99.90;;;;;;4999375;28;20957;-76
2021/07/06 07:30:43;;;;;;;2.40;2.10;;;22.40;99.90;;;;;;4995605;28;20461;-75
2021/07/06 07:33:11;;;;;;;6.10;4.87;;;22.40;99.90;;;;;;4994341;28;20457;-75
2021/07/06 07:35:39;;;;;;;4.53;2.67;;;22.30;99.90;;;;;;4998410;28;20440;-75
2021/07/06 07:38:07;;;;;;;2.20;2.00;;;22.30;99.90;;;;;;4994204;28;20495;-75
2021/07/06 07:40:35;;;;;;;2.27;1.60;;;22.30;99.90;;;;;;4996651;28;20560;-75
2021/07/06 07:43:07;;;;;;;1.73;1.63;;;22.30;99.90;;;;;;4994076;28;20465;-75
2021/07/06 07:45:37;;;;;;;3.10;2.22;;;22.30;99.90;;;;;;4992844;28;20539;-74
2021/07/06 07:48:06;;;;;;;8.00;5.67;;;22.40;99.90;;;;;;4994359;28;20604;-75
2021/07/06 07:50:34;;;;;;;4.30;2.30;;;22.40;99.90;;;;;;4994116;28;20563;-74
2021/07/06 07:53:08;;;;;;;6.40;5.20;;;22.50;99.90;;;;;;4996318;28;20535;-74
2021/07/06 07:55:40;;;;;;;5.40;2.27;;;22.60;99.90;;;;;;4998665;28;20425;-75
2021/07/06 07:58:10;;;;;;;2.00;1.80;;;22.60;99.90;;;;;;4993747;28;20496;-75
2021/07/06 08:00:40;;;;;;;3.27;1.80;;;22.70;99.90;;;;;;4995096;28;20790;-75
2021/07/06 08:03:08;;;;;;;2.80;1.67;;;22.80;99.90;;;;;;4995109;28;20884;-74
2021/07/06 08:05:36;;;;;;;1.97;1.77;;;22.90;99.90;;;;;;4993636;28;20441;-74
2021/07/06 08:08:05;;;;;;;2.20;1.70;;;23.00;99.90;;;;;;4993434;28;20551;-75
2021/07/06 08:10:33;;;;;;;5.00;3.10;;;23.10;99.90;;;;;;4995290;28;20456;-75
2021/07/06 08:13:01;;;;;;;4.93;2.20;;;23.20;99.90;;;;;;4995404;28;20470;-75
2021/07/06 08:15:29;;;;;;;2.03;1.87;;;23.40;99.90;;;;;;4995215;28;20438;-75
2021/07/06 08:17:59;;;;;;;3.47;2.93;;;23.50;99.90;;;;;;4995216;28;20503;-75
2021/07/06 08:20:27;;;;;;;5.93;4.70;;;23.60;99.90;;;;;;4993624;28;20473;-74
2021/07/06 08:22:57;;;;;;;2.47;1.80;;;23.60;99.90;;;;;;4995288;28;20476;-75
2021/07/06 08:25:26;;;;;;;3.27;2.30;;;23.70;99.90;;;;;;4995088;28;20441;-75
2021/07/06 08:27:54;;;;;;;3.90;2.03;;;23.70;99.90;;;;;;4995086;28;20540;-75
2021/07/06 08:30:22;;;;;;;2.40;1.60;;;23.60;99.90;;;;;;4993823;28;20571;-74
2021/07/06 08:32:50;;;;;;;2.60;1.70;;;23.60;99.90;;;;;;4993618;28;20544;-74
2021/07/06 08:35:21;;;;;;;4.50;4.00;;;23.60;99.90;;;;;;4993407;28;21050;-73
2021/07/06 08:37:52;;;;;;;2.07;1.57;;;23.60;99.90;;;;;;4993442;28;20457;-74
2021/07/06 08:40:20;;;;;;;3.13;2.60;;;23.60;99.90;;;;;;4994801;28;20453;-74
2021/07/06 08:42:50;;;;;;;2.27;2.03;;;23.50;99.90;;;;;;4993235;28;20461;-74
2021/07/06 08:45:20;;;;;;;2.00;1.63;;;23.50;99.90;;;;;;4994695;28;20440;-74
2021/07/06 08:47:51;;;;;;;2.30;1.70;;;23.50;99.90;;;;;;4993118;28;20468;-74
2021/07/06 08:50:21;;;;;;;1.97;1.50;;;23.50;99.90;;;;;;4994739;28;20475;-74
2021/07/06 08:52:50;;;;;;;1.90;1.60;;;23.50;99.90;;;;;;4993362;28;20512;-74
2021/07/06 08:55:19;;;;;;;3.10;1.90;;;23.50;99.90;;;;;;4993171;28;20448;-75
2021/07/06 08:57:51;;;;;;;3.83;2.27;;;23.50;99.90;;;;;;4993680;28;20461;-74
2021/07/06 09:00:21;;;;;;;3.50;2.20;;;23.50;99.90;;;;;;4993715;28;20469;-74
2021/07/06 09:03:01;;;;;;;1.50;1.40;;;23.50;99.90;;;;;;4994463;28;20433;-74
2021/07/06 09:05:32;;;;;;;2.73;2.30;;;23.50;99.90;;;;;;4993663;28;20451;-74
2021/07/06 09:08:00;;;;;;;5.30;2.70;;;23.50;99.90;;;;;;4995023;28;20513;-73
2021/07/06 09:10:35;;;;;;;2.60;1.57;;;23.50;99.90;;;;;;4993124;28;21092;-74
2021/07/06 09:13:18;;;;;;;2.20;1.17;;;23.50;99.90;;;;;;4994460;28;20770;-74
2021/07/06 09:15:52;;;;;;;2.00;1.10;;;23.40;99.90;;;;;;4992729;28;20825;-74
2021/07/06 09:18:21;;;;;;;2.00;1.30;;;23.40;99.90;;;;;;4994420;28;21042;-74
2021/07/06 09:21:04;;;;;;;1.30;1.10;;;23.40;99.90;;;;;;4994346;28;20205;-74
2021/07/06 09:23:37;;;;;;;5.20;4.00;;;23.40;99.90;;;;;;4994222;28;20985;-74
2021/07/06 09:26:17;;;;;;;2.47;1.50;;;23.40;99.90;;;;;;4994697;28;20476;-74
2021/07/06 09:28:47;;;;;;;3.22;1.40;;;23.30;99.90;;;;;;4991917;28;20507;-74
2021/07/06 09:31:37;;;;;;;1.70;1.00;;;23.40;99.90;;;;;;4992912;28;20221;-74
2021/07/06 09:34:09;;;;;;;1.50;1.13;;;23.30;99.90;;;;;;4990898;28;20449;-73
2021/07/06 09:36:41;;;;;;;2.63;1.43;;;23.30;99.90;;;;;;4992674;28;20491;-73
2021/07/06 09:39:21;;;;;;;1.30;1.20;;;23.20;99.90;;;;;;4993894;28;20457;-74
2021/07/06 09:41:58;;;;;;;1.87;1.17;;;23.20;99.90;;;;;;4992302;28;20452;-74
2021/07/06 09:44:31;;;;;;;1.33;1.03;;;23.10;99.90;;;;;;4993950;28;20491;-73
2021/07/06 09:47:02;;;;;;;1.20;1.03;;;23.00;99.90;;;;;;4992243;28;20503;-74
2021/07/06 09:49:32;;;;;;;1.30;0.97;;;23.00;99.90;;;;;;4992496;28;20465;-74
2021/07/06 09:52:12;;;;;;;1.23;1.10;;;22.90;99.90;;;;;;4993846;28;20437;-73
2021/07/06 09:54:44;;;;;;;1.50;1.10;;;22.90;99.90;;;;;;4992249;28;20524;-74
2021/07/06 09:57:20;;;;;;;1.83;1.00;;;22.90;99.90;;;;;;4992521;28;20445;-73
2021/07/06 10:00:04;;;;;;;1.77;0.90;;;22.80;99.90;;;;;;4993322;28;20472;-74
2021/07/06 10:02:45;;;;;;;3.90;1.03;;;22.80;99.90;;;;;;4992198;28;20499;-74
2021/07/06 10:05:18;;;;;;;2.70;1.27;;;22.80;99.90;;;;;;4993999;28;20496;-73
2021/07/06 10:07:47;;;;;;;2.10;1.23;;;22.80;99.90;;;;;;4992910;28;20794;-74
2021/07/06 10:10:16;;;;;;;3.10;1.37;;;22.70;99.90;;;;;;4992044;28;20214;-74
2021/07/06 10:12:46;;;;;;;2.87;1.30;;;22.70;99.90;;;;;;4993647;28;20966;-74
2021/07/06 10:15:19;;;;;;;2.17;1.20;;;22.70;99.90;;;;;;4992003;28;20438;-74
2021/07/06 10:17:49;;;;;;;1.47;1.20;;;22.60;99.90;;;;;;4992601;28;20527;-73
2021/07/06 10:20:21;;;;;;;2.53;1.37;;;22.60;99.90;;;;;;4991859;28;20467;-74
2021/07/06 10:22:52;;;;;;;1.40;1.10;;;22.60;99.90;;;;;;4992178;28;20456;-73
2021/07/06 10:25:26;;;;;;;2.00;1.10;;;22.60;99.90;;;;;;4992267;28;20469;-73
2021/07/06 10:27:57;;;;;;;2.27;1.20;;;22.60;99.90;;;;;;4993169;28;20453;-74
2021/07/06 10:30:29;;;;;;;2.17;0.97;;;22.60;99.90;;;;;;4995795;28;20468;-73
2021/07/06 11:37:31;;;;;;;1.73;1.07;;;22.80;99.90;;;;;;4825456;26;20989;-75
2021/07/06 11:39:59;;;;;;;1.10;0.90;;;22.80;99.90;;;;;;4975789;28;20880;-75
2021/07/06 11:42:31;;;;;;;1.57;1.20;;;22.80;99.90;;;;;;4993599;28;20982;-75
2021/07/06 11:44:59;;;;;;;1.97;1.03;;;22.90;99.90;;;;;;4976508;28;20476;-75
2021/07/06 11:47:27;;;;;;;1.80;1.20;;;22.90;99.90;;;;;;4993958;28;20488;-76
2021/07/06 11:49:55;;;;;;;1.63;1.30;;;23.00;99.90;;;;;;4994534;28;20469;-75
2021/07/06 11:52:23;;;;;;;1.60;1.10;;;23.00;99.90;;;;;;4995800;28;20950;-75
2021/07/06 11:54:54;;;;;;;1.07;0.73;;;23.00;99.90;;;;;;4995667;28;20465;-75
2021/07/06 11:57:25;;;;;;;1.40;0.70;;;23.10;99.90;;;;;;4995184;28;20788;-75
2021/07/06 11:59:53;;;;;;;1.20;0.80;;;23.10;99.90;;;;;;4995215;28;20560;-75
2021/07/06 12:02:21;;;;;;;1.87;1.03;;;23.20;99.90;;;;;;4995183;28;20433;-75
2021/07/06 12:04:49;;;;;;;5.20;2.63;;;23.30;99.90;;;;;;4977768;28;20977;-75
2021/07/06 12:07:18;;;;;;;1.70;1.30;;;23.40;99.90;;;;;;4995217;28;20437;-75
2021/07/06 12:09:46;;;;;;;3.80;1.40;;;23.40;99.90;;;;;;4995146;28;20489;-75
2021/07/06 12:12:20;;;;;;;2.90;0.93;;;23.50;99.90;;;;;;4977555;28;20488;-75
2021/07/06 12:14:50;;;;;;;1.20;0.93;;;23.50;99.90;;;;;;4995187;28;20454;-75
2021/07/06 12:17:29;;;;;;;1.10;0.90;;;23.50;99.90;;;;;;4995152;28;20441;-75
2021/07/06 12:19:59;;;;;;;4.50;1.17;;;23.60;99.90;;;;;;4994866;28;20559;-75
2021/07/06 12:22:29;;;;;;;1.20;1.10;;;23.70;99.90;;;;;;4994758;28;20445;-75
2021/07/06 12:24:58;;;;;;;1.30;1.03;;;23.80;99.90;;;;;;4995180;28;21034;-75
2021/07/06 12:27:28;;;;;;;2.67;1.40;;;23.90;99.90;;;;;;4977201;28;20453;-75
2021/07/06 12:30:01;;;;;;;2.93;1.10;;;23.90;99.90;;;;;;4994733;28;20469;-75
2021/07/06 12:32:29;;;;;;;2.33;0.97;;;24.00;99.90;;;;;;4994856;28;20504;-75
2021/07/06 12:35:00;;;;;;;1.47;1.10;;;24.10;99.90;;;;;;4994604;28;20441;-75
2021/07/06 12:37:29;;;;;;;2.07;1.50;;;24.20;99.90;;;;;;4995167;28;20473;-75
2021/07/06 12:40:07;;;;;;;1.95;1.20;;;24.30;99.90;;;;;;4975981;28;20453;-75
2021/07/06 12:42:42;;;;;;;1.40;1.10;;;24.50;99.90;;;;;;4994337;28;20229;-75
2021/07/06 12:45:11;;;;;;;2.83;1.50;;;24.50;99.90;;;;;;4994504;28;20503;-75
2021/07/06 12:47:42;;;;;;;2.25;1.88;;;24.50;99.90;;;;;;4976388;28;20468;-75
2021/07/06 12:50:16;;;;;;;1.20;1.00;;;24.50;99.90;;;;;;4994259;28;20300;-75
2021/07/06 12:52:46;;;;;;;1.30;1.03;;;24.50;99.90;;;;;;4976891;28;20453;-75
2021/07/06 12:55:16;;;;;;;1.33;1.20;;;24.50;99.90;;;;;;4994444;28;20480;-74
2021/07/06 12:57:46;;;;;;;1.23;1.03;;;24.50;99.90;;;;;;4994172;28;20485;-75
2021/07/06 13:00:18;;;;;;;1.57;1.20;;;24.60;99.90;;;;;;4994276;28;20453;-75
2021/07/06 13:02:51;;;;;;;2.97;1.13;;;24.70;99.90;;;;;;4994170;28;20437;-75
2021/07/06 13:05:23;;;;;;;3.50;1.00;;;24.80;99.90;;;;;;4977165;28;20496;-75
2021/07/06 13:07:51;;;;;;;1.90;1.27;;;24.90;99.90;;;;;;4976657;28;20871;-75
2021/07/06 13:10:22;;;;;;;1.73;1.07;;;25.00;99.90;;;;;;4994199;28;20471;-75
2021/07/06 13:12:57;;;;;;;1.43;0.97;;;25.10;99.90;;;;;;4994135;28;20512;-75
2021/07/06 13:15:34;;;;;;;1.20;0.97;;;25.20;99.90;;;;;;4994200;28;20437;-75
2021/07/06 13:18:04;;;;;;;1.50;1.07;;;25.30;99.90;;;;;;4976783;28;20433;-75
2021/07/06 13:20:36;;;;;;;4.60;2.20;;;25.30;99.90;;;;;;4994135;28;20551;-75
2021/07/06 13:23:04;;;;;;;1.20;1.07;;;25.40;99.90;;;;;;4994545;28;20449;-75
2021/07/06 13:25:33;;;;;;;1.37;1.23;;;25.40;99.90;;;;;;4984198;28;20476;-75
2021/07/06 13:28:03;;;;;;;1.30;1.02;;;25.50;99.90;;;;;;4989633;28;20451;-75
2021/07/06 13:30:33;;;;;;;2.53;1.33;;;25.60;99.90;;;;;;4997713;28;20250;-75
2021/07/06 13:33:04;;;;;;;1.30;1.20;;;25.50;99.90;;;;;;4994414;28;20809;-75
2021/07/06 13:35:33;;;;;;;1.70;1.10;;;25.50;99.90;;;;;;4975926;28;20448;-75
2021/07/06 13:38:01;;;;;;;2.20;1.07;;;25.40;99.90;;;;;;4994437;28;20174;-75
2021/07/06 13:40:29;;;;;;;3.53;1.00;;;25.50;99.90;;;;;;4993996;28;21000;-75
2021/07/06 13:43:01;;;;;;;1.60;0.87;;;25.50;99.90;;;;;;4994091;28;20436;-75
2021/07/06 13:45:30;;;;;;;2.40;1.37;;;25.50;99.90;;;;;;4993698;28;20500;-75
2021/07/06 13:47:58;;;;;;;1.23;1.00;;;25.60;99.90;;;;;;4994253;28;20467;-75
2021/07/06 13:50:26;;;;;;;2.50;1.10;;;25.70;99.90;;;;;;4993758;28;20466;-75
2021/07/06 13:52:57;;;;;;;1.67;1.20;;;25.70;99.90;;;;;;4993880;28;20523;-75
2021/07/06 13:55:28;;;;;;;1.07;0.97;;;25.70;99.90;;;;;;4976218;28;20446;-75
2021/07/06 13:57:56;;;;;;;1.37;1.10;;;25.80;99.90;;;;;;4994385;28;20425;-75
2021/07/06 14:00:26;;;;;;;1.70;1.00;;;25.90;99.90;;;;;;4975950;28;20469;-75
2021/07/06 14:02:57;;;;;;;1.60;1.00;;;25.90;99.90;;;;;;4994984;28;20518;-75
2021/07/06 14:05:26;;;;;;;2.60;1.37;;;26.00;99.90;;;;;;4997495;28;20511;-75
2021/07/06 14:07:54;;;;;;;1.83;0.93;;;26.00;99.90;;;;;;4997250;28;20487;-75
2021/07/06 14:10:23;;;;;;;2.72;1.30;;;26.10;99.50;;;;;;4997127;28;20542;-75
2021/07/06 14:12:55;;;;;;;2.17;1.40;;;26.10;99.00;;;;;;4997774;28;20653;-75